sensor_id;sensor_type;location;lat;lon;timestamp;pressure;altitude;pressure_sealevel;temperature
23992;BMP280;12205;50.600;4.608;2023-12-20T00:02:20;100507.38;;;7.16
23992;BMP280;12205;50.600;4.608;2023-12-20T00:04:47;100503.16;;;7.15
23992;BMP280;12205;50.600;4.608;2023-12-20T00:07:15;100507.38;;;7.16
23992;BMP280;12205;50.600;4.608;2023-12-20T00:09:42;100509.13;;;7.12
23992;BMP280;12205;50.600;4.608;2023-12-20T00:12:10;100518.41;;;6.97
23992;BMP280;12205;50.600;4.608;2023-12-20T00:14:37;100515.91;;;7.01
23992;BMP280;12205;50.600;4.608;2023-12-20T00:17:04;100523.44;;;6.90
23992;BMP280;12205;50.600;4.608;2023-12-20T00:19:33;100527.03;;;6.86
23992;BMP280;12205;50.600;4.608;2023-12-20T00:22:00;100528.81;;;6.73
23992;BMP280;12205;50.600;4.608;2023-12-20T00:24:27;100527.25;;;6.72
23992;BMP280;12205;50.600;4.608;2023-12-20T00:26:54;100526.00;;;6.69
23992;BMP280;12205;50.600;4.608;2023-12-20T00:29:21;100543.19;;;6.72
23992;BMP280;12205;50.600;4.608;2023-12-20T00:31:49;100526.47;;;6.71
23992;BMP280;12205;50.600;4.608;2023-12-20T00:34:16;100550.56;;;6.66
23992;BMP280;12205;50.600;4.608;2023-12-20T00:36:45;100557.41;;;6.67
23992;BMP280;12205;50.600;4.608;2023-12-20T00:39:13;100546.66;;;6.63
23992;BMP280;12205;50.600;4.608;2023-12-20T00:41:40;100539.59;;;6.68
23992;BMP280;12205;50.600;4.608;2023-12-20T00:44:07;100544.13;;;6.76
23992;BMP280;12205;50.600;4.608;2023-12-20T00:46:34;100544.13;;;6.76
23992;BMP280;12205;50.600;4.608;2023-12-20T00:49:01;100548.94;;;6.82
23992;BMP280;12205;50.600;4.608;2023-12-20T00:51:28;100558.66;;;6.78
23992;BMP280;12205;50.600;4.608;2023-12-20T00:53:57;100546.94;;;6.79
23992;BMP280;12205;50.600;4.608;2023-12-20T00:56:24;100545.53;;;6.73
23992;BMP280;12205;50.600;4.608;2023-12-20T00:58:51;100547.72;;;6.71
23992;BMP280;12205;50.600;4.608;2023-12-20T01:01:18;100545.06;;;6.71
23992;BMP280;12205;50.600;4.608;2023-12-20T01:03:45;100540.72;;;6.58
23992;BMP280;12205;50.600;4.608;2023-12-20T01:06:12;100529.81;;;6.51
23992;BMP280;12205;50.600;4.608;2023-12-20T01:08:40;100543.41;;;6.49
23992;BMP280;12205;50.600;4.608;2023-12-20T01:11:08;100532.19;;;6.43
23992;BMP280;12205;50.600;4.608;2023-12-20T01:13:36;100544.50;;;6.48
23992;BMP280;12205;50.600;4.608;2023-12-20T01:16:03;100537.31;;;6.40
23992;BMP280;12205;50.600;4.608;2023-12-20T01:18:31;100529.69;;;6.38
23992;BMP280;12205;50.600;4.608;2023-12-20T01:21:02;100529.41;;;6.31
23992;BMP280;12205;50.600;4.608;2023-12-20T01:23:29;100537.97;;;6.28
23992;BMP280;12205;50.600;4.608;2023-12-20T01:25:57;100537.22;;;6.19
23992;BMP280;12205;50.600;4.608;2023-12-20T01:28:26;100550.94;;;6.12
23992;BMP280;12205;50.600;4.608;2023-12-20T01:30:54;100547.66;;;6.15
23992;BMP280;12205;50.600;4.608;2023-12-20T01:33:21;100553.94;;;6.10
23992;BMP280;12205;50.600;4.608;2023-12-20T01:35:48;100557.38;;;6.11
23992;BMP280;12205;50.600;4.608;2023-12-20T01:38:16;100560.00;;;6.11
23992;BMP280;12205;50.600;4.608;2023-12-20T01:40:44;100568.78;;;6.12
23992;BMP280;12205;50.600;4.608;2023-12-20T01:43:11;100556.88;;;6.00
23992;BMP280;12205;50.600;4.608;2023-12-20T01:45:40;100560.94;;;6.06
23992;BMP280;12205;50.600;4.608;2023-12-20T01:48:09;100557.81;;;6.04
23992;BMP280;12205;50.600;4.608;2023-12-20T01:50:37;100573.41;;;5.97
23992;BMP280;12205;50.600;4.608;2023-12-20T01:53:07;100577.97;;;5.88
23992;BMP280;12205;50.600;4.608;2023-12-20T01:55:40;100580.59;;;5.88
23992;BMP280;12205;50.600;4.608;2023-12-20T01:58:08;100593.72;;;5.93
23992;BMP280;12205;50.600;4.608;2023-12-20T02:00:36;100588.72;;;6.00
23992;BMP280;12205;50.600;4.608;2023-12-20T02:03:05;100586.19;;;5.86
23992;BMP280;12205;50.600;4.608;2023-12-20T02:05:35;100582.78;;;5.95
23992;BMP280;12205;50.600;4.608;2023-12-20T02:08:04;100584.81;;;5.98
23992;BMP280;12205;50.600;4.608;2023-12-20T02:10:31;100587.78;;;5.96
23992;BMP280;12205;50.600;4.608;2023-12-20T02:12:59;100581.69;;;5.87
23992;BMP280;12205;50.600;4.608;2023-12-20T02:15:26;100577.28;;;5.82
23992;BMP280;12205;50.600;4.608;2023-12-20T02:17:54;100588.22;;;5.72
23992;BMP280;12205;50.600;4.608;2023-12-20T02:20:23;100605.53;;;5.69
23992;BMP280;12205;50.600;4.608;2023-12-20T02:22:51;100594.91;;;5.69
23992;BMP280;12205;50.600;4.608;2023-12-20T02:25:18;100587.72;;;5.61
23992;BMP280;12205;50.600;4.608;2023-12-20T02:27:46;100597.72;;;5.64
23992;BMP280;12205;50.600;4.608;2023-12-20T02:30:14;100593.34;;;5.68
23992;BMP280;12205;50.600;4.608;2023-12-20T02:32:41;100601.28;;;5.60
23992;BMP280;12205;50.600;4.608;2023-12-20T02:35:08;100609.56;;;5.58
23992;BMP280;12205;50.600;4.608;2023-12-20T02:37:35;100612.69;;;5.60
23992;BMP280;12205;50.600;4.608;2023-12-20T02:40:06;100598.94;;;5.58
23992;BMP280;12205;50.600;4.608;2023-12-20T02:42:33;100603.59;;;5.52
23992;BMP280;12205;50.600;4.608;2023-12-20T02:45:01;100589.31;;;5.62
23992;BMP280;12205;50.600;4.608;2023-12-20T02:47:28;100587.72;;;5.61
23992;BMP280;12205;50.600;4.608;2023-12-20T02:49:55;100594.72;;;5.57
23992;BMP280;12205;50.600;4.608;2023-12-20T02:52:23;100603.16;;;5.50
23992;BMP280;12205;50.600;4.608;2023-12-20T02:54:50;100600.16;;;5.52
23992;BMP280;12205;50.600;4.608;2023-12-20T02:57:19;100612.69;;;5.60
23992;BMP280;12205;50.600;4.608;2023-12-20T02:59:46;100597.88;;;5.59
23992;BMP280;12205;50.600;4.608;2023-12-20T03:02:13;100609.56;;;5.58
23992;BMP280;12205;50.600;4.608;2023-12-20T03:04:41;100604.25;;;5.58
23992;BMP280;12205;50.600;4.608;2023-12-20T03:07:08;100599.38;;;5.51
23992;BMP280;12205;50.600;4.608;2023-12-20T03:09:35;100598.00;;;5.54
23992;BMP280;12205;50.600;4.608;2023-12-20T03:12:03;100603.56;;;5.44
23992;BMP280;12205;50.600;4.608;2023-12-20T03:14:31;100604.88;;;5.55
23992;BMP280;12205;50.600;4.608;2023-12-20T03:16:58;100607.84;;;5.53
23992;BMP280;12205;50.600;4.608;2023-12-20T03:19:25;100601.72;;;5.53
23992;BMP280;12205;50.600;4.608;2023-12-20T03:21:53;100601.47;;;5.63
23992;BMP280;12205;50.600;4.608;2023-12-20T03:24:20;100603.63;;;5.61
23992;BMP280;12205;50.600;4.608;2023-12-20T03:26:47;100590.50;;;5.56
23992;BMP280;12205;50.600;4.608;2023-12-20T03:29:14;100597.72;;;5.64
23992;BMP280;12205;50.600;4.608;2023-12-20T03:31:43;100588.22;;;5.63
23992;BMP280;12205;50.600;4.608;2023-12-20T03:34:10;100572.44;;;5.58
23992;BMP280;12205;50.600;4.608;2023-12-20T03:36:37;100576.78;;;5.54
23992;BMP280;12205;50.600;4.608;2023-12-20T03:39:04;100575.41;;;5.56
23992;BMP280;12205;50.600;4.608;2023-12-20T03:41:32;100580.06;;;5.68
23992;BMP280;12205;50.600;4.608;2023-12-20T03:43:59;100581.66;;;5.61
23992;BMP280;12205;50.600;4.608;2023-12-20T03:46:26;100586.66;;;5.62
23992;BMP280;12205;50.600;4.608;2023-12-20T03:48:54;100581.97;;;5.68
23992;BMP280;12205;50.600;4.608;2023-12-20T03:51:21;100574.03;;;5.77
23992;BMP280;12205;50.600;4.608;2023-12-20T03:53:49;100571.69;;;5.75
23992;BMP280;12205;50.600;4.608;2023-12-20T03:56:16;100574.19;;;5.71
23992;BMP280;12205;50.600;4.608;2023-12-20T03:58:43;100581.53;;;5.74
23992;BMP280;12205;50.600;4.608;2023-12-20T04:01:10;100572.78;;;5.83
23992;BMP280;12205;50.600;4.608;2023-12-20T04:03:39;100569.19;;;5.87
23992;BMP280;12205;50.600;4.608;2023-12-20T04:06:08;100575.59;;;5.78
23992;BMP280;12205;50.600;4.608;2023-12-20T04:08:35;100574.50;;;5.87
23992;BMP280;12205;50.600;4.608;2023-12-20T04:11:03;100579.34;;;5.85
23992;BMP280;12205;50.600;4.608;2023-12-20T04:13:30;100581.84;;;5.90
23992;BMP280;12205;50.600;4.608;2023-12-20T04:15:57;100591.03;;;5.84
23992;BMP280;12205;50.600;4.608;2023-12-20T04:18:24;100584.22;;;5.92
23992;BMP280;12205;50.600;4.608;2023-12-20T04:20:51;100584.34;;;5.87
23992;BMP280;12205;50.600;4.608;2023-12-20T04:23:20;100585.78;;;6.02
23992;BMP280;12205;50.600;4.608;2023-12-20T04:25:47;100585.28;;;6.08
23992;BMP280;12205;50.600;4.608;2023-12-20T04:28:14;100584.97;;;6.01
23992;BMP280;12205;50.600;4.608;2023-12-20T04:30:42;100575.00;;;5.89
23992;BMP280;12205;50.600;4.608;2023-12-20T04:33:09;100584.97;;;6.01
23992;BMP280;12205;50.600;4.608;2023-12-20T04:35:36;100577.00;;;6.01
23992;BMP280;12205;50.600;4.608;2023-12-20T04:38:03;100580.59;;;6.05
23992;BMP280;12205;50.600;4.608;2023-12-20T04:40:32;100574.69;;;6.08
23992;BMP280;12205;50.600;4.608;2023-12-20T04:42:59;100576.75;;;6.12
23992;BMP280;12205;50.600;4.608;2023-12-20T04:45:26;100570.78;;;6.06
23992;BMP280;12205;50.600;4.608;2023-12-20T04:47:54;100585.78;;;6.10
23992;BMP280;12205;50.600;4.608;2023-12-20T04:50:20;100576.88;;;6.06
23992;BMP280;12205;50.600;4.608;2023-12-20T04:52:48;100574.69;;;6.08
23992;BMP280;12205;50.600;4.608;2023-12-20T04:55:15;100587.78;;;6.14
23992;BMP280;12205;50.600;4.608;2023-12-20T04:57:44;100590.00;;;6.12
23992;BMP280;12205;50.600;4.608;2023-12-20T05:00:12;100586.88;;;6.09
23992;BMP280;12205;50.600;4.608;2023-12-20T05:02:41;100569.53;;;6.03
23992;BMP280;12205;50.600;4.608;2023-12-20T05:05:08;100581.25;;;6.11
23992;BMP280;12205;50.600;4.608;2023-12-20T05:07:36;100586.88;;;6.09
23992;BMP280;12205;50.600;4.608;2023-12-20T05:10:03;100593.41;;;6.03
23992;BMP280;12205;50.600;4.608;2023-12-20T05:12:31;100587.16;;;5.99
23992;BMP280;12205;50.600;4.608;2023-12-20T05:14:59;100584.97;;;6.01
23992;BMP280;12205;50.600;4.608;2023-12-20T05:17:27;100592.75;;;5.89
23992;BMP280;12205;50.600;4.608;2023-12-20T05:19:54;100588.41;;;5.93
23992;BMP280;12205;50.600;4.608;2023-12-20T05:22:21;100582.63;;;6.00
23992;BMP280;12205;50.600;4.608;2023-12-20T05:24:48;100571.72;;;6.01
23992;BMP280;12205;50.600;4.608;2023-12-20T05:27:15;100575.31;;;5.88
23992;BMP280;12205;50.600;4.608;2023-12-20T05:29:42;100574.06;;;5.94
23992;BMP280;12205;50.600;4.608;2023-12-20T05:32:11;100576.88;;;6.06
23992;BMP280;12205;50.600;4.608;2023-12-20T05:34:38;100573.91;;;5.82
23992;BMP280;12205;50.600;4.608;2023-12-20T05:37:05;100580.75;;;5.83
23992;BMP280;12205;50.600;4.608;2023-12-20T05:39:32;100578.59;;;5.94
23992;BMP280;12205;50.600;4.608;2023-12-20T05:41:59;100580.94;;;5.95
23992;BMP280;12205;50.600;4.608;2023-12-20T05:44:27;100577.66;;;6.07
23992;BMP280;12205;50.600;4.608;2023-12-20T05:46:54;100575.63;;;5.95
23992;BMP280;12205;50.600;4.608;2023-12-20T05:49:23;100574.69;;;5.91
23992;BMP280;12205;50.600;4.608;2023-12-20T05:51:50;100582.59;;;5.82
23992;BMP280;12205;50.600;4.608;2023-12-20T05:54:17;100587.16;;;5.82
23992;BMP280;12205;50.600;4.608;2023-12-20T05:56:44;100580.44;;;5.84
23992;BMP280;12205;50.600;4.608;2023-12-20T05:59:12;100579.47;;;5.63
23992;BMP280;12205;50.600;4.608;2023-12-20T06:01:39;100593.66;;;5.58
23992;BMP280;12205;50.600;4.608;2023-12-20T06:04:06;100597.38;;;5.57
23992;BMP280;12205;50.600;4.608;2023-12-20T06:06:41;100593.97;;;5.56
23992;BMP280;12205;50.600;4.608;2023-12-20T06:09:09;100602.53;;;5.53
23992;BMP280;12205;50.600;4.608;2023-12-20T06:11:37;100593.31;;;5.51
23992;BMP280;12205;50.600;4.608;2023-12-20T06:14:04;100609.97;;;5.43
23992;BMP280;12205;50.600;4.608;2023-12-20T06:16:31;100609.03;;;5.38
23992;BMP280;12205;50.600;4.608;2023-12-20T06:18:59;100596.22;;;5.41
23992;BMP280;12205;50.600;4.608;2023-12-20T06:21:26;100606.97;;;5.35
23992;BMP280;12205;50.600;4.608;2023-12-20T06:23:55;100612.25;;;5.35
23992;BMP280;12205;50.600;4.608;2023-12-20T06:26:22;100608.53;;;5.36
23992;BMP280;12205;50.600;4.608;2023-12-20T06:28:49;100615.94;;;5.17
23992;BMP280;12205;50.600;4.608;2023-12-20T06:31:16;100605.25;;;5.31
23992;BMP280;12205;50.600;4.608;2023-12-20T06:33:43;100609.28;;;5.28
23992;BMP280;12205;50.600;4.608;2023-12-20T06:36:11;100619.06;;;5.19
23992;BMP280;12205;50.600;4.608;2023-12-20T06:38:39;100616.44;;;5.19
23992;BMP280;12205;50.600;4.608;2023-12-20T06:41:13;100621.88;;;5.14
23992;BMP280;12205;50.600;4.608;2023-12-20T06:43:40;100622.97;;;5.21
23992;BMP280;12205;50.600;4.608;2023-12-20T06:46:07;100625.34;;;5.23
23992;BMP280;12205;50.600;4.608;2023-12-20T06:48:35;100625.34;;;5.23
23992;BMP280;12205;50.600;4.608;2023-12-20T06:51:02;100621.16;;;5.31
23992;BMP280;12205;50.600;4.608;2023-12-20T06:53:30;100629.59;;;5.33
23992;BMP280;12205;50.600;4.608;2023-12-20T06:55:57;100623.50;;;5.32
23992;BMP280;12205;50.600;4.608;2023-12-20T06:58:25;100612.56;;;5.25
23992;BMP280;12205;50.600;4.608;2023-12-20T07:00:53;100609.25;;;5.19
23992;BMP280;12205;50.600;4.608;2023-12-20T07:03:20;100608.22;;;5.29
23992;BMP280;12205;50.600;4.608;2023-12-20T07:05:47;100603.22;;;5.36
23992;BMP280;12205;50.600;4.608;2023-12-20T07:08:14;100602.47;;;5.36
23992;BMP280;12205;50.600;4.608;2023-12-20T07:10:42;100593.78;;;5.44
23992;BMP280;12205;50.600;4.608;2023-12-20T07:13:09;100585.16;;;5.38
23992;BMP280;12205;50.600;4.608;2023-12-20T07:15:38;100582.31;;;5.26
23992;BMP280;12205;50.600;4.608;2023-12-20T07:18:05;100590.13;;;5.31
23992;BMP280;12205;50.600;4.608;2023-12-20T07:20:33;100591.69;;;5.32
23992;BMP280;12205;50.600;4.608;2023-12-20T07:23:00;100593.22;;;5.25
23992;BMP280;12205;50.600;4.608;2023-12-20T07:25:27;100577.13;;;5.21
23992;BMP280;12205;50.600;4.608;2023-12-20T07:27:54;100589.78;;;5.24
23992;BMP280;12205;50.600;4.608;2023-12-20T07:30:21;100593.53;;;5.23
23992;BMP280;12205;50.600;4.608;2023-12-20T07:32:50;100582.75;;;5.19
23992;BMP280;12205;50.600;4.608;2023-12-20T07:35:18;100584.13;;;5.17
23992;BMP280;12205;50.600;4.608;2023-12-20T07:37:45;100587.13;;;5.15
23992;BMP280;12205;50.600;4.608;2023-12-20T07:40:13;100600.81;;;5.17
23992;BMP280;12205;50.600;4.608;2023-12-20T07:42:42;100611.78;;;5.25
23992;BMP280;12205;50.600;4.608;2023-12-20T07:45:10;100608.47;;;5.19
23992;BMP280;12205;50.600;4.608;2023-12-20T07:47:37;100608.47;;;5.19
23992;BMP280;12205;50.600;4.608;2023-12-20T07:50:08;100596.16;;;5.14
23992;BMP280;12205;50.600;4.608;2023-12-20T07:52:36;100593.78;;;5.13
23992;BMP280;12205;50.600;4.608;2023-12-20T07:55:03;100593.78;;;5.13
23992;BMP280;12205;50.600;4.608;2023-12-20T07:57:31;100602.16;;;5.06
23992;BMP280;12205;50.600;4.608;2023-12-20T07:59:58;100599.34;;;5.02
23992;BMP280;12205;50.600;4.608;2023-12-20T08:02:25;100603.25;;;5.05
23992;BMP280;12205;50.600;4.608;2023-12-20T08:04:52;100594.53;;;5.04
23992;BMP280;12205;50.600;4.608;2023-12-20T08:07:21;100605.13;;;5.04
23992;BMP280;12205;50.600;4.608;2023-12-20T08:09:48;100612.75;;;5.06
23992;BMP280;12205;50.600;4.608;2023-12-20T08:12:15;100605.78;;;5.10
23992;BMP280;12205;50.600;4.608;2023-12-20T08:14:43;100606.19;;;5.03
23992;BMP280;12205;50.600;4.608;2023-12-20T08:17:10;100601.28;;;5.11
23992;BMP280;12205;50.600;4.608;2023-12-20T08:19:38;100612.47;;;5.08
23992;BMP280;12205;50.600;4.608;2023-12-20T08:22:05;100607.16;;;5.08
23992;BMP280;12205;50.600;4.608;2023-12-20T08:24:34;100609.03;;;5.07
23992;BMP280;12205;50.600;4.608;2023-12-20T08:27:01;100619.94;;;5.06
23992;BMP280;12205;50.600;4.608;2023-12-20T08:29:28;100619.34;;;5.09
23992;BMP280;12205;50.600;4.608;2023-12-20T08:31:56;100616.38;;;5.10
23992;BMP280;12205;50.600;4.608;2023-12-20T08:34:23;100635.72;;;5.11
23992;BMP280;12205;50.600;4.608;2023-12-20T08:36:50;100609.25;;;5.19
23992;BMP280;12205;50.600;4.608;2023-12-20T08:39:18;100611.41;;;5.17
23992;BMP280;12205;50.600;4.608;2023-12-20T08:41:46;100618.34;;;5.27
23992;BMP280;12205;50.600;4.608;2023-12-20T08:44:13;100624.31;;;5.33
23992;BMP280;12205;50.600;4.608;2023-12-20T08:46:40;100617.56;;;5.35
23992;BMP280;12205;50.600;4.608;2023-12-20T08:49:08;100622.88;;;5.35
23992;BMP280;12205;50.600;4.608;2023-12-20T08:51:35;100606.91;;;5.49
23992;BMP280;12205;50.600;4.608;2023-12-20T08:54:05;100601.22;;;5.42
23992;BMP280;12205;50.600;4.608;2023-12-20T08:56:34;100610.44;;;5.45
23992;BMP280;12205;50.600;4.608;2023-12-20T08:59:03;100607.44;;;5.37
23992;BMP280;12205;50.600;4.608;2023-12-20T09:01:30;100599.97;;;5.39
23992;BMP280;12205;50.600;4.608;2023-12-20T09:03:57;100614.19;;;5.44
23992;BMP280;12205;50.600;4.608;2023-12-20T09:06:24;100610.28;;;5.41
23992;BMP280;12205;50.600;4.608;2023-12-20T09:08:51;100613.72;;;5.42
23992;BMP280;12205;50.600;4.608;2023-12-20T09:11:19;100605.03;;;5.50
23992;BMP280;12205;50.600;4.608;2023-12-20T09:13:46;100602.81;;;5.52
23992;BMP280;12205;50.600;4.608;2023-12-20T09:16:14;100606.41;;;5.56
23992;BMP280;12205;50.600;4.608;2023-12-20T09:18:42;100610.50;;;5.62
23992;BMP280;12205;50.600;4.608;2023-12-20T09:21:09;100615.81;;;5.62
23992;BMP280;12205;50.600;4.608;2023-12-20T09:23:36;100610.06;;;5.69
23992;BMP280;12205;50.600;4.608;2023-12-20T09:26:04;100604.13;;;5.72
23992;BMP280;12205;50.600;4.608;2023-12-20T09:28:31;100600.72;;;5.71
23992;BMP280;12205;50.600;4.608;2023-12-20T09:31:04;100603.81;;;5.73
23992;BMP280;12205;50.600;4.608;2023-12-20T09:33:32;100603.69;;;5.79
23992;BMP280;12205;50.600;4.608;2023-12-20T09:36:00;100596.19;;;5.81
23992;BMP280;12205;50.600;4.608;2023-12-20T09:38:27;100596.47;;;5.70
23992;BMP280;12205;50.600;4.608;2023-12-20T09:40:54;100598.69;;;5.86
23992;BMP280;12205;50.600;4.608;2023-12-20T09:43:24;100599.31;;;5.83
23992;BMP280;12205;50.600;4.608;2023-12-20T09:45:54;100589.97;;;5.94
23992;BMP280;12205;50.600;4.608;2023-12-20T09:48:27;100597.16;;;6.02
23992;BMP280;12205;50.600;4.608;2023-12-20T09:50:56;100598.72;;;6.03
23992;BMP280;12205;50.600;4.608;2023-12-20T09:53:25;100596.22;;;6.16
23992;BMP280;12205;50.600;4.608;2023-12-20T09:55:58;100586.69;;;6.15
23992;BMP280;12205;50.600;4.608;2023-12-20T09:58:26;100585.00;;;6.19
23992;BMP280;12205;50.600;4.608;2023-12-20T10:00:55;100580.16;;;6.30
23992;BMP280;12205;50.600;4.608;2023-12-20T10:03:25;100584.66;;;6.46
23992;BMP280;12205;50.600;4.608;2023-12-20T10:05:57;100576.53;;;6.52
23992;BMP280;12205;50.600;4.608;2023-12-20T10:08:25;100594.31;;;6.60
23992;BMP280;12205;50.600;4.608;2023-12-20T10:10:52;100565.59;;;6.44
23992;BMP280;12205;50.600;4.608;2023-12-20T10:13:20;100565.06;;;6.69
23992;BMP280;12205;50.600;4.608;2023-12-20T10:15:47;100557.38;;;6.85
23992;BMP280;12205;50.600;4.608;2023-12-20T10:18:16;100569.09;;;6.92
23992;BMP280;12205;50.600;4.608;2023-12-20T10:20:45;100562.81;;;6.97
23992;BMP280;12205;50.600;4.608;2023-12-20T10:23:15;100559.03;;;6.98
23992;BMP280;12205;50.600;4.608;2023-12-20T10:25:55;100547.22;;;6.87
23992;BMP280;12205;50.600;4.608;2023-12-20T10:28:22;100548.25;;;7.03
23992;BMP280;12205;50.600;4.608;2023-12-20T10:30:54;100548.25;;;7.03
23992;BMP280;12205;50.600;4.608;2023-12-20T10:33:26;100546.97;;;7.09
23992;BMP280;12205;50.600;4.608;2023-12-20T10:35:55;100548.03;;;7.17
23992;BMP280;12205;50.600;4.608;2023-12-20T10:38:24;100541.75;;;7.22
23992;BMP280;12205;50.600;4.608;2023-12-20T10:40:57;100537.97;;;7.23
23992;BMP280;12205;50.600;4.608;2023-12-20T10:43:26;100541.19;;;7.37
23992;BMP280;12205;50.600;4.608;2023-12-20T10:45:53;100537.22;;;7.43
23992;BMP280;12205;50.600;4.608;2023-12-20T10:48:22;100534.47;;;7.61
23992;BMP280;12205;50.600;4.608;2023-12-20T10:50:56;100520.31;;;7.69
23992;BMP280;12205;50.600;4.608;2023-12-20T10:53:25;100513.56;;;7.71
23992;BMP280;12205;50.600;4.608;2023-12-20T10:55:55;100510.09;;;7.71
23992;BMP280;12205;50.600;4.608;2023-12-20T10:58:25;100492.72;;;7.74
23992;BMP280;12205;50.600;4.608;2023-12-20T11:01:00;100500.72;;;7.74
23992;BMP280;12205;50.600;4.608;2023-12-20T11:03:31;100506.59;;;7.79
23992;BMP280;12205;50.600;4.608;2023-12-20T11:06:05;100490.41;;;7.72
23992;BMP280;12205;50.600;4.608;2023-12-20T11:08:44;100476.03;;;7.85
23992;BMP280;12205;50.600;4.608;2023-12-20T11:11:21;100485.41;;;7.70
23992;BMP280;12205;50.600;4.608;2023-12-20T11:13:58;100486.81;;;7.68
23992;BMP280;12205;50.600;4.608;2023-12-20T11:16:27;100472.00;;;7.79
23992;BMP280;12205;50.600;4.608;2023-12-20T11:18:54;100484.47;;;7.87
23992;BMP280;12205;50.600;4.608;2023-12-20T11:21:21;100478.22;;;7.83
23992;BMP280;12205;50.600;4.608;2023-12-20T11:23:50;100482.38;;;7.93
23992;BMP280;12205;50.600;4.608;2023-12-20T11:26:23;100477.69;;;7.78
23992;BMP280;12205;50.600;4.608;2023-12-20T11:28:53;100490.06;;;7.74
23992;BMP280;12205;50.600;4.608;2023-12-20T11:31:20;100471.66;;;7.81
23992;BMP280;12205;50.600;4.608;2023-12-20T11:33:47;100476.03;;;7.85
23992;BMP280;12205;50.600;4.608;2023-12-20T11:36:19;100470.44;;;7.99
23992;BMP280;12205;50.600;4.608;2023-12-20T11:38:55;100475.78;;;7.78
23992;BMP280;12205;50.600;4.608;2023-12-20T11:41:23;100470.72;;;7.85
23992;BMP280;12205;50.600;4.608;2023-12-20T11:43:53;100462.41;;;7.87
23992;BMP280;12205;50.600;4.608;2023-12-20T11:46:21;100461.88;;;7.94
23992;BMP280;12205;50.600;4.608;2023-12-20T11:48:48;100457.13;;;7.99
23992;BMP280;12205;50.600;4.608;2023-12-20T11:51:15;100458.34;;;8.02
23992;BMP280;12205;50.600;4.608;2023-12-20T11:53:42;100454.13;;;8.01
23992;BMP280;12205;50.600;4.608;2023-12-20T11:56:11;100470.66;;;8.06
23992;BMP280;12205;50.600;4.608;2023-12-20T11:58:39;100467.56;;;8.04
23992;BMP280;12205;50.600;4.608;2023-12-20T12:01:07;100471.16;;;7.87
23992;BMP280;12205;50.600;4.608;2023-12-20T12:03:34;100466.09;;;8.07
23992;BMP280;12205;50.600;4.608;2023-12-20T12:06:02;100469.44;;;8.04
23992;BMP280;12205;50.600;4.608;2023-12-20T12:08:30;100437.28;;;8.09
23992;BMP280;12205;50.600;4.608;2023-12-20T12:10:57;100444.03;;;8.06
23992;BMP280;12205;50.600;4.608;2023-12-20T12:13:26;100429.31;;;8.09
23992;BMP280;12205;50.600;4.608;2023-12-20T12:15:54;100438.84;;;8.10
23992;BMP280;12205;50.600;4.608;2023-12-20T12:18:21;100441.28;;;8.15
23992;BMP280;12205;50.600;4.608;2023-12-20T12:20:48;100438.41;;;8.20
23992;BMP280;12205;50.600;4.608;2023-12-20T12:23:23;100433.53;;;8.10
23992;BMP280;12205;50.600;4.608;2023-12-20T12:25:50;100441.94;;;8.12
23992;BMP280;12205;50.600;4.608;2023-12-20T12:28:17;100439.22;;;8.21
23992;BMP280;12205;50.600;4.608;2023-12-20T12:30:57;100433.88;;;8.21
23992;BMP280;12205;50.600;4.608;2023-12-20T12:33:25;100434.72;;;8.25
23992;BMP280;12205;50.600;4.608;2023-12-20T12:35:52;100439.06;;;8.17
23992;BMP280;12205;50.600;4.608;2023-12-20T12:38:20;100430.09;;;8.22
23992;BMP280;12205;50.600;4.608;2023-12-20T12:40:49;100438.59;;;8.15
23992;BMP280;12205;50.600;4.608;2023-12-20T12:43:16;100430.88;;;8.22
23992;BMP280;12205;50.600;4.608;2023-12-20T12:45:44;100442.19;;;8.19
23992;BMP280;12205;50.600;4.608;2023-12-20T12:48:13;100447.19;;;8.08
23992;BMP280;12205;50.600;4.608;2023-12-20T12:50:40;100446.38;;;8.08
23992;BMP280;12205;50.600;4.608;2023-12-20T12:53:07;100441.94;;;8.12
23992;BMP280;12205;50.600;4.608;2023-12-20T12:55:35;100431.06;;;8.05
23992;BMP280;12205;50.600;4.608;2023-12-20T12:58:02;100422.41;;;8.08
23992;BMP280;12205;50.600;4.608;2023-12-20T13:00:30;100431.09;;;8.17
23992;BMP280;12205;50.600;4.608;2023-12-20T13:02:57;100426.50;;;8.05
23992;BMP280;12205;50.600;4.608;2023-12-20T13:05:26;100420.22;;;8.10
23992;BMP280;12205;50.600;4.608;2023-12-20T13:07:54;100427.94;;;8.03
23992;BMP280;12205;50.600;4.608;2023-12-20T13:10:21;100412.75;;;8.03
23992;BMP280;12205;50.600;4.608;2023-12-20T13:12:48;100412.41;;;7.93
23992;BMP280;12205;50.600;4.608;2023-12-20T13:15:15;100413.16;;;7.93
23992;BMP280;12205;50.600;4.608;2023-12-20T13:17:42;100408.84;;;8.01
23992;BMP280;12205;50.600;4.608;2023-12-20T13:20:12;100400.22;;;8.16
23992;BMP280;12205;50.600;4.608;2023-12-20T13:22:40;100393.34;;;8.27
23992;BMP280;12205;50.600;4.608;2023-12-20T13:25:08;100390.06;;;8.43
23992;BMP280;12205;50.600;4.608;2023-12-20T13:27:35;100384.28;;;8.53
23992;BMP280;12205;50.600;4.608;2023-12-20T13:30:03;100383.84;;;8.51
23992;BMP280;12205;50.600;4.608;2023-12-20T13:32:30;100370.06;;;8.49
23992;BMP280;12205;50.600;4.608;2023-12-20T13:34:58;100360.41;;;8.44
23992;BMP280;12205;50.600;4.608;2023-12-20T13:37:25;100358.97;;;8.35
23992;BMP280;12205;50.600;4.608;2023-12-20T13:39:53;100352.09;;;8.21
23992;BMP280;12205;50.600;4.608;2023-12-20T13:42:20;100359.63;;;8.07
23992;BMP280;12205;50.600;4.608;2023-12-20T13:44:48;100359.53;;;8.16
23992;BMP280;12205;50.600;4.608;2023-12-20T13:47:15;100365.09;;;8.11
23992;BMP280;12205;50.600;4.608;2023-12-20T13:49:42;100353.88;;;8.17
23992;BMP280;12205;50.600;4.608;2023-12-20T13:52:09;100348.69;;;8.21
23992;BMP280;12205;50.600;4.608;2023-12-20T13:54:37;100349.97;;;8.15
23992;BMP280;12205;50.600;4.608;2023-12-20T13:57:06;100344.78;;;8.18
23992;BMP280;12205;50.600;4.608;2023-12-20T13:59:33;100344.88;;;8.22
23992;BMP280;12205;50.600;4.608;2023-12-20T14:02:01;100349.09;;;8.11
23992;BMP280;12205;50.600;4.608;2023-12-20T14:04:29;100333.13;;;8.11
23992;BMP280;12205;50.600;4.608;2023-12-20T14:06:56;100337.00;;;8.13
23992;BMP280;12205;50.600;4.608;2023-12-20T14:09:24;100329.91;;;8.17
23992;BMP280;12205;50.600;4.608;2023-12-20T14:11:51;100322.59;;;8.14
23992;BMP280;12205;50.600;4.608;2023-12-20T14:14:20;100330.81;;;8.09